Time;durP1;ratioP1;P1;durP2;ratioP2;P2;SDS_P1;SDS_P2;PMS_P1;PMS_P2;Temp;Humidity;BMP_temperature;BMP_pressure;BME280_temperature;BME280_humidity;BME280_pressure;Samples;Min_cycle;Max_cycle;Signal;HPM_P1;HPM_P2
2021/11/11 00:02:45;;;;;;;13.20;6.15;;;;;;;2.59;100.00;96251.78;10359332;28;20041;-71
2021/11/11 00:07:45;;;;;;;13.40;6.38;;;;;;;2.55;100.00;96253.19;10359180;28;20065;-72
2021/11/11 00:12:48;;;;;;;13.40;5.78;;;;;;;2.53;100.00;96245.41;10343375;28;20028;-70
2021/11/11 00:17:49;;;;;;;17.55;7.57;;;;;;;2.41;100.00;96241.56;10342149;28;20037;-69
2021/11/11 00:22:50;;;;;;;8.55;5.80;;;;;;;2.48;100.00;96239.81;10342339;28;20033;-74
2021/11/11 00:27:51;;;;;;;10.45;5.97;;;;;;;2.40;100.00;96231.97;10342957;28;20103;-74
2021/11/11 00:32:52;;;;;;;15.05;5.45;;;;;;;2.42;100.00;96227.31;10342951;28;20060;-70
2021/11/11 00:37:53;;;;;;;17.77;7.15;;;;;;;2.38;100.00;96234.78;10341733;28;20097;-71
2021/11/11 00:42:54;;;;;;;8.30;5.68;;;;;;;2.34;100.00;96240.66;10358323;28;20121;-70
2021/11/11 00:47:55;;;;;;;14.82;6.70;;;;;;;2.13;100.00;96226.31;10357232;28;20044;-71
2021/11/11 00:52:55;;;;;;;8.20;5.80;;;;;;;2.07;100.00;96231.53;10359025;28;20131;-72
2021/11/11 00:57:56;;;;;;;10.85;6.40;;;;;;;2.03;100.00;96231.06;10342289;28;20042;-78
2021/11/11 01:02:57;;;;;;;9.55;5.43;;;;;;;1.79;100.00;96232.97;10341529;28;20403;-71
2021/11/11 01:07:58;;;;;;;11.77;6.03;;;;;;;1.73;100.00;96222.25;10342634;28;20602;-71
2021/11/11 01:12:58;;;;;;;9.75;5.70;;;;;;;1.69;100.00;96225.28;10349106;28;20037;-74
2021/11/11 01:18:01;;;;;;;8.18;4.82;;;;;;;1.56;100.00;96217.09;10348791;28;20033;-71
2021/11/11 01:23:03;;;;;;;12.07;6.30;;;;;;;1.57;100.00;96220.59;10348490;28;20036;-70
2021/11/11 01:28:04;;;;;;;11.90;5.32;;;;;;;1.54;100.00;96211.16;10367405;28;20029;-74
2021/11/11 01:33:05;;;;;;;11.07;6.07;;;;;;;1.51;100.00;96207.06;10348575;28;20407;-72
2021/11/11 01:38:06;;;;;;;11.02;5.97;;;;;;;1.57;100.00;96210.00;10347734;28;20609;-71
2021/11/11 01:43:07;;;;;;;11.52;5.72;;;;;;;1.65;100.00;96210.72;10347824;28;20117;-74
2021/11/11 01:48:13;;;;;;;11.10;6.55;;;;;;;1.69;100.00;96204.06;10348018;28;20511;-72
2021/11/11 01:53:14;;;;;;;10.88;5.90;;;;;;;1.74;100.00;96206.16;10347356;28;20073;-71
2021/11/11 01:58:16;;;;;;;15.07;6.30;;;;;;;1.77;100.00;96202.34;10347205;28;20030;-70
2021/11/11 02:03:17;;;;;;;10.80;6.38;;;;;;;1.74;100.00;96192.91;10347009;28;20034;-72
2021/11/11 02:08:18;;;;;;;13.18;6.32;;;;;;;1.74;100.00;96194.75;10346961;28;20113;-73
2021/11/11 02:13:19;;;;;;;13.57;6.93;;;;;;;1.78;100.00;96193.38;10346634;28;20034;-73
2021/11/11 02:18:20;;;;;;;12.23;7.07;;;;;;;1.75;100.00;96185.81;10346157;28;20057;-71
2021/11/11 02:23:21;;;;;;;17.73;7.38;;;;;;;1.81;100.00;96180.56;10346195;28;20128;-75
2021/11/11 02:28:22;;;;;;;13.85;6.22;;;;;;;1.87;100.00;96184.31;10346281;28;20037;-76
2021/11/11 02:33:25;;;;;;;12.77;7.15;;;;;;;1.91;100.00;96184.78;10345659;28;20117;-75
2021/11/11 02:38:25;;;;;;;10.13;6.50;;;;;;;1.90;100.00;96188.44;10345415;28;20057;-72
2021/11/11 02:43:28;;;;;;;8.82;5.68;;;;;;;1.80;100.00;96178.94;10345779;28;20034;-75
2021/11/11 02:48:28;;;;;;;9.38;5.93;;;;;;;1.78;100.00;96175.66;10345438;28;20064;-75
2021/11/11 02:53:29;;;;;;;8.52;5.32;;;;;;;1.79;100.00;96173.84;10344701;28;20068;-71
2021/11/11 02:58:30;;;;;;;6.60;4.35;;;;;;;1.77;100.00;96171.34;10345766;28;20033;-71
2021/11/11 03:03:31;;;;;;;14.85;6.82;;;;;;;1.66;100.00;96171.78;10344781;28;20040;-73
2021/11/11 03:08:31;;;;;;;7.53;5.20;;;;;;;1.62;100.00;96168.69;10344459;28;20048;-71
2021/11/11 03:13:32;;;;;;;10.00;5.93;;;;;;;1.61;100.00;96166.22;10328487;28;20033;-71
2021/11/11 03:18:32;;;;;;;9.77;5.35;;;;;;;1.55;100.00;96162.47;10344158;28;20817;-71
2021/11/11 03:23:33;;;;;;;14.82;5.28;;;;;;;1.56;100.00;96165.94;10344294;28;20080;-71
2021/11/11 03:28:34;;;;;;;7.22;4.45;;;;;;;1.62;100.00;96163.41;10344531;28;20033;-72
2021/11/11 03:33:34;;;;;;;9.57;5.45;;;;;;;1.58;100.00;96156.81;10361059;28;20026;-71
2021/11/11 03:38:34;;;;;;;5.57;4.67;;;;;;;1.57;100.00;96146.41;10343657;28;20963;-76
2021/11/11 03:43:35;;;;;;;11.23;6.63;;;;;;;1.49;100.00;96145.47;10343146;28;20317;-71
2021/11/11 03:48:35;;;;;;;9.63;4.95;;;;;;;1.52;100.00;96139.81;10360862;28;20529;-75
2021/11/11 03:53:36;;;;;;;10.23;5.20;;;;;;;1.43;100.00;96134.78;10343091;28;20026;-76
2021/11/11 03:58:37;;;;;;;11.48;5.35;;;;;;;1.51;100.00;96127.56;10342963;28;20273;-72
2021/11/11 04:03:38;;;;;;;8.18;5.55;;;;;;;1.47;100.00;96123.63;10342723;28;20056;-72
2021/11/11 04:08:38;;;;;;;8.18;5.20;;;;;;;1.47;100.00;96134.22;10342589;28;20041;-77
2021/11/11 04:13:39;;;;;;;12.65;5.43;;;;;;;1.39;100.00;96128.19;10342609;28;20026;-75
2021/11/11 04:18:40;;;;;;;11.82;5.75;;;;;;;1.36;100.00;96124.88;10359983;28;20037;-69
2021/11/11 04:23:40;;;;;;;12.90;5.55;;;;;;;1.26;100.00;96118.22;10343041;28;20479;-75
2021/11/11 04:28:55;;;;;;;9.07;5.43;;;;;;;1.18;100.00;96119.94;10342310;28;20017;-74
2021/11/11 04:34:02;;;;;;;9.63;6.03;;;;;;;1.04;100.00;96120.72;10342475;28;20786;-71
2021/11/11 04:49:45;;;;;;;15.15;7.28;;;;;;;1.02;100.00;96107.69;10367470;28;20026;-74
2021/11/11 05:05:22;;;;;;;16.17;8.38;;;;;;;0.96;100.00;96107.56;10366653;28;20480;-75
2021/11/11 05:10:24;;;;;;;15.18;7.70;;;;;;;0.90;100.00;96108.28;10348871;28;20022;-71
2021/11/11 05:15:25;;;;;;;19.48;8.98;;;;;;;0.80;100.00;96109.34;10348315;28;20030;-75
2021/11/11 05:20:25;;;;;;;16.20;7.72;;;;;;;0.80;100.00;96108.53;10365851;28;20954;-70
2021/11/11 05:25:26;;;;;;;12.00;7.50;;;;;;;0.78;100.00;96105.22;10347760;28;20018;-74
2021/11/11 05:30:27;;;;;;;24.90;9.75;;;;;;;0.83;100.00;96100.22;10348037;28;20484;-76
2021/11/11 05:35:29;;;;;;;14.80;8.27;;;;;;;0.88;100.00;96105.81;10348143;28;20029;-75
2021/11/11 05:40:29;;;;;;;16.23;10.15;;;;;;;1.00;100.00;96109.66;10347170;28;20065;-73
2021/11/11 05:45:30;;;;;;;19.55;11.10;;;;;;;1.13;100.00;96106.44;10347133;28;20063;-70
2021/11/11 05:50:30;;;;;;;27.77;11.05;;;;;;;1.21;100.00;96104.69;10346868;28;20426;-71
2021/11/11 05:55:31;;;;;;;32.67;13.70;;;;;;;1.23;100.00;96108.81;10346792;28;20514;-71
2021/11/11 06:00:32;;;;;;;31.17;13.57;;;;;;;1.46;100.00;96114.03;10345970;28;20029;-71
2021/11/11 06:05:33;;;;;;;31.15;10.23;;;;;;;1.63;100.00;96113.84;10346456;28;20034;-73
2021/11/11 06:10:34;;;;;;;21.85;11.70;;;;;;;1.61;100.00;96123.84;10346223;28;20049;-70
2021/11/11 06:15:34;;;;;;;28.15;14.52;;;;;;;1.71;100.00;96113.78;10346556;28;20535;-71
2021/11/11 06:20:42;;;;;;;35.05;13.73;;;;;;;1.87;100.00;96120.69;10346112;28;20030;-70
2021/11/11 06:25:43;;;;;;;29.00;13.07;;;;;;;2.04;100.00;96116.84;10345505;28;20026;-75
2021/11/11 06:30:43;;;;;;;21.42;11.63;;;;;;;2.22;100.00;96120.94;10363524;28;20084;-71
2021/11/11 06:35:44;;;;;;;23.00;11.52;;;;;;;2.33;100.00;96125.78;10345207;28;20064;-71
2021/11/11 06:40:44;;;;;;;32.80;11.88;;;;;;;2.43;100.00;96127.28;10344939;28;20053;-70
2021/11/11 06:45:46;;;;;;;28.10;11.68;;;;;;;2.69;100.00;96126.75;10344613;28;20531;-71
2021/11/11 06:50:47;;;;;;;21.52;10.50;;;;;;;3.05;100.00;96113.38;10344883;28;20034;-75
2021/11/11 06:55:48;;;;;;;18.83;10.60;;;;;;;3.33;100.00;96109.94;10344232;28;20100;-71
2021/11/11 07:00:54;;;;;;;20.33;10.23;;;;;;;3.36;100.00;96103.41;10344283;28;20033;-74
2021/11/11 07:05:55;;;;;;;27.60;11.70;;;;;;;3.51;100.00;96109.44;10360816;28;20487;-71
2021/11/11 07:10:56;;;;;;;19.70;10.00;;;;;;;3.75;100.00;96099.38;10344280;28;20029;-71
2021/11/11 07:15:57;;;;;;;24.65;10.60;;;;;;;4.01;100.00;96081.91;10343697;28;20034;-72
2021/11/11 07:20:57;;;;;;;23.27;12.05;;;;;;;4.21;100.00;96068.66;10343598;28;20385;-71
2021/11/11 07:25:58;;;;;;;19.60;9.23;;;;;;;4.60;100.00;96062.63;10361280;28;20030;-71
2021/11/11 07:30:58;;;;;;;26.38;11.10;;;;;;;4.69;100.00;96049.09;10343342;28;20030;-70
2021/11/11 07:36:02;;;;;;;21.60;10.20;;;;;;;5.03;100.00;96061.41;10342683;28;20031;-71
2021/11/11 07:41:02;;;;;;;23.23;7.95;;;;;;;5.70;100.00;96060.53;10342238;28;20049;-70
2021/11/11 07:46:05;;;;;;;13.45;8.05;;;;;;;5.93;100.00;96052.03;10342615;28;20041;-71
2021/11/11 07:51:06;;;;;;;18.13;9.20;;;;;;;6.06;100.00;96044.00;10342811;28;20030;-71
2021/11/11 07:56:07;;;;;;;21.67;9.57;;;;;;;5.98;100.00;96042.38;10360767;28;20037;-70
2021/11/11 08:01:08;;;;;;;13.85;7.57;;;;;;;6.27;100.00;96044.75;10342374;28;20033;-70
2021/11/11 08:06:08;;;;;;;22.27;9.75;;;;;;;6.47;100.00;96042.78;10341987;28;20161;-75
2021/11/11 08:11:09;;;;;;;20.35;8.80;;;;;;;6.79;98.17;96032.06;10359899;28;20033;-71
2021/11/11 08:16:09;;;;;;;17.27;9.05;;;;;;;6.87;98.06;96024.84;10342249;28;20192;-74
2021/11/11 08:21:10;;;;;;;21.75;10.30;;;;;;;6.66;97.27;96024.97;10350983;28;20168;-70
2021/11/11 08:26:11;;;;;;;18.55;9.70;;;;;;;6.86;100.00;96009.84;10368202;28;20037;-75
2021/11/11 08:31:11;;;;;;;21.63;9.43;;;;;;;7.27;93.45;96005.75;10350340;28;20030;-70
2021/11/11 08:36:12;;;;;;;20.08;9.55;;;;;;;7.44;92.54;96004.16;10350390;28;20030;-71
2021/11/11 08:41:12;;;;;;;23.38;10.55;;;;;;;7.79;92.43;95994.72;10325744;28;20072;-70
2021/11/11 08:46:13;;;;;;;16.17;8.02;;;;;;;8.10;87.66;95992.91;10326882;28;20050;-69
2021/11/11 08:51:14;;;;;;;19.50;10.15;;;;;;;8.14;80.88;95992.22;10325816;28;20026;-75
2021/11/11 08:56:14;;;;;;;21.55;9.43;;;;;;;8.40;82.07;95987.56;10325335;28;20419;-71
2021/11/11 09:01:15;;;;;;;14.10;8.15;;;;;;;8.61;78.22;95977.38;10326611;28;20058;-75
2021/11/11 09:06:15;;;;;;;14.90;7.22;;;;;;;9.00;69.73;95977.78;10324615;28;20472;-71
2021/11/11 09:11:16;;;;;;;15.90;7.17;;;;;;;9.08;65.66;95966.69;10325190;28;20021;-71
2021/11/11 09:16:16;;;;;;;24.25;7.53;;;;;;;9.20;66.14;95961.34;10324877;28;20775;-70
2021/11/11 09:21:17;;;;;;;16.17;7.65;;;;;;;9.75;61.44;95958.25;10324409;28;20031;-70
2021/11/11 09:26:18;;;;;;;18.15;7.57;;;;;;;9.90;62.70;95946.97;10324260;28;20848;-69
2021/11/11 09:31:19;;;;;;;15.45;7.15;;;;;;;10.42;58.48;95939.88;10323801;28;20030;-69
2021/11/11 09:36:20;;;;;;;16.50;7.97;;;;;;;11.06;56.98;95925.31;10323415;28;20026;-71
2021/11/11 09:41:21;;;;;;;17.17;7.10;;;;;;;11.22;55.00;95918.28;10323349;28;20157;-75
2021/11/11 09:46:22;;;;;;;16.42;7.80;;;;;;;10.20;57.16;95913.69;10325095;28;20850;-74
2021/11/11 09:51:24;;;;;;;20.13;8.27;;;;;;;9.87;60.10;95904.50;10324620;28;20408;-70
2021/11/11 10:01:45;;;;;;;12.50;6.97;;;;;;;11.72;54.08;95884.19;10324355;28;20048;-71
2021/11/11 10:06:46;;;;;;;14.35;7.40;;;;;;;12.58;52.19;95871.84;10322771;28;20038;-69
2021/11/11 10:11:50;;;;;;;13.32;6.93;;;;;;;13.94;45.79;95860.44;10322713;28;20161;-70
2021/11/11 10:16:58;;;;;;;14.20;6.22;;;;;;;15.19;43.35;95843.94;10336642;28;20120;-71
2021/11/11 10:22:08;;;;;;;21.15;5.63;;;;;;;15.71;41.44;95832.91;10340371;28;20030;-73
2021/11/11 10:27:28;;;;;;;13.13;5.95;;;;;;;15.75;40.57;95835.91;10336113;28;20030;-70
2021/11/11 10:32:31;;;;;;;15.38;5.93;;;;;;;16.43;39.68;95827.06;10335457;28;20069;-71
2021/11/11 10:37:38;;;;;;;13.90;5.95;;;;;;;15.12;40.94;95827.19;10347737;28;20471;-71
2021/11/11 10:42:42;;;;;;;13.85;6.72;;;;;;;13.59;44.42;95834.13;10362939;28;20034;-74
2021/11/11 10:47:46;;;;;;;13.13;6.65;;;;;;;13.63;45.27;95814.44;10379755;28;20033;-71
2021/11/11 10:52:53;;;;;;;13.45;7.03;;;;;;;13.75;45.74;95810.69;10363426;28;20026;-75
2021/11/11 10:57:59;;;;;;;16.23;6.82;;;;;;;13.90;44.83;95804.47;10359847;28;20029;-75
2021/11/11 11:03:00;;;;;;;11.85;7.03;;;;;;;14.19;45.14;95800.19;10361706;28;20111;-77
2021/11/11 11:08:08;;;;;;;11.85;6.78;;;;;;;14.96;43.92;95782.28;10362446;28;20084;-75
2021/11/11 11:13:13;;;;;;;12.02;6.78;;;;;;;15.34;41.84;95780.78;10374872;28;20037;-74
2021/11/11 11:18:15;;;;;;;19.00;7.38;;;;;;;14.41;42.75;95769.34;10382685;28;20106;-77
2021/11/11 11:23:25;;;;;;;13.98;6.85;;;;;;;14.57;43.22;95769.34;10384112;28;20040;-76
2021/11/11 11:28:41;;;;;;;12.77;6.63;;;;;;;14.19;44.81;95756.94;10384476;28;20049;-78
2021/11/11 11:33:45;;;;;;;15.77;7.68;;;;;;;13.74;44.09;95755.81;10383867;28;20573;-76
2021/11/11 11:38:51;;;;;;;15.20;8.18;;;;;;;13.20;46.43;95745.38;10401601;28;20119;-71
2021/11/11 11:43:51;;;;;;;13.30;7.18;;;;;;;12.89;46.87;95745.28;10383523;28;20415;-72
2021/11/11 11:48:53;;;;;;;18.73;8.20;;;;;;;12.56;48.42;95742.69;10383459;28;20025;-74
2021/11/11 11:54:06;;;;;;;16.77;7.78;;;;;;;12.20;48.86;95733.53;10366470;28;20123;-75
2021/11/11 11:59:11;;;;;;;17.55;8.10;;;;;;;11.92;49.88;95732.75;10403347;28;20027;-78
2021/11/11 12:04:24;;;;;;;12.18;6.60;;;;;;;11.25;52.03;95721.34;10382865;28;20180;-71
2021/11/11 12:09:51;;;;;;;12.35;7.10;;;;;;;11.27;52.39;95711.97;10368365;28;20447;-72
2021/11/11 12:16:03;;;;;;;14.30;6.22;;;;;;;10.97;53.33;95708.91;10400500;28;20049;-72
2021/11/11 12:42:56;;;;;;;17.73;8.45;;;;;;;10.56;56.44;95675.13;10400277;28;20029;-70
2021/11/11 12:48:11;;;;;;;16.02;7.72;;;;;;;10.39;61.52;95667.09;10381968;28;20029;-71
2021/11/11 12:53:11;;;;;;;18.38;8.13;;;;;;;10.39;58.60;95663.59;10381859;28;20100;-71
2021/11/11 12:58:20;;;;;;;15.77;7.85;;;;;;;10.39;58.41;95667.09;10381943;28;20021;-78
2021/11/11 13:03:21;;;;;;;17.38;8.23;;;;;;;10.30;59.68;95657.81;10383206;28;20021;-71
2021/11/11 13:08:56;;;;;;;16.60;7.75;;;;;;;10.12;60.01;95652.69;10407621;28;20033;-75
2021/11/11 13:14:26;;;;;;;24.50;8.60;;;;;;;9.99;61.15;95643.97;10402217;28;20042;-71
2021/11/11 13:19:32;;;;;;;22.20;8.10;;;;;;;10.00;60.63;95642.88;10389042;28;20033;-73
2021/11/11 15:18:18;;;;;;;15.45;7.18;;;;;;;7.90;86.62;95619.25;10300522;28;20465;-71
2021/11/11 16:22:26;;;;;;;20.73;7.20;;;;;;;7.27;55.85;95636.75;10318972;28;20022;-75
2021/11/11 16:27:29;;;;;;;9.52;4.65;;;;;;;7.18;52.43;95631.75;10318986;28;20085;-74
2021/11/11 16:32:29;;;;;;;7.43;3.55;;;;;;;7.22;50.94;95634.78;10301712;28;20023;-72
2021/11/11 16:37:30;;;;;;;8.75;3.42;;;;;;;7.27;48.73;95636.75;10302075;28;20377;-72
2021/11/11 16:42:31;;;;;;;6.10;3.28;;;;;;;7.25;48.90;95639.66;10293150;28;20100;-73
2021/11/11 16:47:31;;;;;;;4.15;2.97;;;;;;;7.23;49.16;95646.28;10293212;28;20037;-72
2021/11/11 16:52:34;;;;;;;7.43;4.43;;;;;;;7.11;47.38;95633.72;10293965;28;20018;-76
2021/11/11 16:57:34;;;;;;;9.45;3.35;;;;;;;7.05;47.38;95641.81;10308524;28;20053;-75
2021/11/11 17:02:35;;;;;;;5.13;3.00;;;;;;;7.01;45.57;95644.97;10326111;28;20129;-75
2021/11/11 17:07:36;;;;;;;7.70;3.00;;;;;;;6.97;44.79;95642.97;10324800;28;20728;-71
2021/11/11 17:12:36;;;;;;;7.25;3.38;;;;;;;6.87;44.77;95638.19;10308301;28;20042;-74
2021/11/11 17:17:37;;;;;;;7.70;4.13;;;;;;;6.82;44.64;95643.38;10307618;28;20562;-73
2021/11/11 17:22:57;;;;;;;11.23;4.10;;;;;;;6.72;44.99;95640.44;10308114;28;20037;-79
2021/11/11 17:33:12;;;;;;;15.43;9.13;;;;;;;6.56;41.38;95642.72;10324935;28;20473;-71
2021/11/11 17:38:14;;;;;;;14.98;6.85;;;;;;;6.58;41.97;95643.28;10290891;28;20054;-71
2021/11/11 17:43:16;;;;;;;14.55;5.63;;;;;;;6.41;43.19;95644.97;10325117;28;20483;-77
2021/11/11 17:48:17;;;;;;;11.82;5.75;;;;;;;6.37;43.55;95649.13;10321198;28;20021;-74
2021/11/11 17:53:19;;;;;;;13.75;6.30;;;;;;;6.27;44.44;95633.63;10317457;28;20645;-70
2021/11/11 17:58:22;;;;;;;12.75;6.68;;;;;;;6.27;46.47;95633.63;10360761;28;20124;-70
2021/11/11 18:03:22;;;;;;;12.57;6.10;;;;;;;5.91;52.20;95637.88;10362638;28;20393;-70
2021/11/11 18:13:29;;;;;;;15.40;5.57;;;;;;;5.58;53.96;95636.34;10344699;28;20030;-70
2021/11/11 18:18:29;;;;;;;12.18;5.60;;;;;;;5.56;54.83;95641.88;10343815;28;20116;-70
2021/11/11 18:23:29;;;;;;;16.05;6.03;;;;;;;5.54;56.21;95632.47;10344876;28;20026;-71
2021/11/11 18:28:38;;;;;;;12.83;6.20;;;;;;;5.39;62.18;95625.63;10344083;28;20435;-72
2021/11/11 18:34:23;;;;;;;12.02;5.50;;;;;;;5.37;73.70;95618.88;10344209;28;20790;-72
2021/11/11 18:39:09;;;;;;;10.68;5.18;;;;;;;5.20;76.79;95615.97;10385354;28;20042;-73
2021/11/11 18:44:14;;;;;;;8.77;4.13;;;;;;;5.02;69.69;95614.84;10350308;28;20030;-68
2021/11/11 18:49:15;;;;;;;10.57;4.00;;;;;;;5.03;69.17;95619.16;10360756;28;20025;-75
2021/11/11 18:54:16;;;;;;;12.50;4.30;;;;;;;4.94;72.41;95629.25;10360178;28;20018;-75
2021/11/11 18:59:17;;;;;;;11.63;4.93;;;;;;;4.97;75.01;95628.03;10360442;28;20037;-77
2021/11/11 19:04:20;;;;;;;10.23;4.55;;;;;;;4.99;76.38;95627.81;10360244;28;20037;-76
2021/11/11 19:14:28;;;;;;;9.70;4.32;;;;;;;5.05;79.60;95632.25;10360652;28;20025;-75
2021/11/11 19:19:36;;;;;;;10.93;3.97;;;;;;;4.94;82.51;95631.94;10358887;28;20018;-75
2021/11/11 19:24:37;;;;;;;9.82;5.13;;;;;;;4.92;86.67;95636.63;10359643;28;20039;-75
2021/11/11 19:29:40;;;;;;;8.90;4.43;;;;;;;4.80;97.24;95625.06;10359757;28;20060;-73
2021/11/11 19:34:50;;;;;;;11.20;4.35;;;;;;;4.74;100.00;95626.69;10358513;28;20018;-74
2021/11/11 21:09:08;;;;;;;23.73;11.27;;;;;;;3.44;100.00;95602.84;10481964;28;20486;-74
2021/11/11 21:24:11;;;;;;;21.92;8.52;;;;;;;3.47;100.00;95591.81;10481125;28;20113;-74
2021/11/11 21:29:11;;;;;;;15.63;7.50;;;;;;;3.39;100.00;95587.50;10487647;28;20024;-74
2021/11/11 21:34:18;;;;;;;18.08;8.95;;;;;;;3.34;100.00;95595.31;10487318;28;20020;-73
2021/11/11 21:39:27;;;;;;;15.25;8.68;;;;;;;3.31;100.00;95591.22;10486492;28;20036;-74
2021/11/11 21:44:28;;;;;;;20.67;8.80;;;;;;;3.36;100.00;95590.59;10486422;28;20039;-75
2021/11/11 21:49:28;;;;;;;14.75;8.15;;;;;;;3.35;100.00;95587.13;10486562;28;20036;-78
2021/11/11 21:54:34;;;;;;;15.02;8.82;;;;;;;3.36;100.00;95578.13;10486139;28;20071;-74
2021/11/11 21:59:45;;;;;;;13.05;6.80;;;;;;;3.25;100.00;95576.91;10485909;28;20681;-73
2021/11/11 22:25:54;;;;;;;17.00;8.85;;;;;;;3.17;100.00;95566.50;10486725;28;20028;-77
2021/11/11 22:36:14;;;;;;;23.52;9.88;;;;;;;3.15;100.00;95555.25;10485525;28;20028;-79
2021/11/11 22:41:17;;;;;;;15.45;9.02;;;;;;;3.05;100.00;95549.56;10484188;28;20505;-74
2021/11/11 22:46:17;;;;;;;21.65;8.25;;;;;;;2.96;100.00;95542.81;10483981;28;20029;-78
2021/11/11 22:51:18;;;;;;;16.88;9.30;;;;;;;2.86;100.00;95541.41;10483787;28;20048;-77
2021/11/11 22:56:23;;;;;;;14.50;9.07;;;;;;;2.81;100.00;95543.84;10485759;28;20028;-75
2021/11/11 23:12:16;;;;;;;27.88;11.82;;;;;;;2.18;100.00;95547.63;10485829;28;20029;-74
2021/11/11 23:32:57;;;;;;;33.38;18.02;;;;;;;1.69;100.00;95533.63;10484456;28;20634;-73
2021/11/11 23:37:58;;;;;;;36.90;15.45;;;;;;;1.68;100.00;95521.38;10467599;28;20025;-74
2021/11/11 23:43:00;;;;;;;24.27;14.48;;;;;;;1.78;100.00;95520.19;10482204;28;20107;-74
2021/11/11 23:48:10;;;;;;;28.17;14.35;;;;;;;1.73;100.00;95506.72;10465432;28;20032;-73
